Time;durP1;ratioP1;P1;durP2;ratioP2;P2;SDS_P1;SDS_P2;PMS_P1;PMS_P2;Temp;Humidity;BMP_temperature;BMP_pressure;BME280_temperature;BME280_humidity;BME280_pressure;Samples;Min_cycle;Max_cycle;Signal;HPM_P1;HPM_P2
2023/05/29 00:01:44;;;;;;;9.80;5.50;;;;;;;14.25;100.00;96116.31;5054475;28;20053;-60
2023/05/29 00:04:12;;;;;;;9.07;6.70;;;;;;;14.24;100.00;96109.38;5054436;28;20110;-60
2023/05/29 00:06:39;;;;;;;10.40;6.10;;;;;;;14.25;100.00;96111.91;5054243;28;20053;-60
2023/05/29 00:09:06;;;;;;;11.70;6.50;;;;;;;14.28;100.00;96111.75;5054306;28;20487;-60
2023/05/29 00:11:33;;;;;;;14.90;5.63;;;;;;;14.28;100.00;96114.38;5054244;28;20410;-59
2023/05/29 00:14:00;;;;;;;6.68;5.55;;;;;;;14.31;100.00;96117.75;5054240;28;20053;-59
2023/05/29 00:16:29;;;;;;;8.80;6.15;;;;;;;14.33;100.00;96113.25;5054183;28;20045;-60
2023/05/29 00:18:57;;;;;;;8.40;5.97;;;;;;;14.33;100.00;96119.31;5054195;28;20051;-59
2023/05/29 00:21:25;;;;;;;7.47;5.55;;;;;;;14.33;100.00;96124.59;5054099;28;20071;-60
2023/05/29 00:23:52;;;;;;;11.10;5.85;;;;;;;14.29;100.00;96125.72;5054199;28;20068;-60
2023/05/29 00:26:19;;;;;;;9.02;6.15;;;;;;;14.25;100.00;96121.59;5053945;28;20131;-59
2023/05/29 00:28:46;;;;;;;11.73;5.85;;;;;;;14.24;100.00;96125.16;5054044;28;20049;-60
2023/05/29 00:31:13;;;;;;;13.02;6.20;;;;;;;14.23;100.00;96129.56;5053724;28;20053;-60
2023/05/29 00:33:42;;;;;;;9.43;6.10;;;;;;;14.18;100.00;96120.25;5053838;28;20480;-59
2023/05/29 00:36:10;;;;;;;9.10;6.35;;;;;;;14.11;100.00;96117.13;5053728;28;20045;-60
2023/05/29 00:38:37;;;;;;;11.68;6.88;;;;;;;14.17;100.00;96122.03;5053781;28;20075;-60
2023/05/29 00:41:04;;;;;;;10.77;5.80;;;;;;;14.22;100.00;96113.88;5053846;28;20171;-59
2023/05/29 00:43:31;;;;;;;8.70;5.50;;;;;;;14.28;100.00;96121.41;5053695;28;20128;-59
2023/05/29 00:45:59;;;;;;;7.70;5.68;;;;;;;14.30;100.00;96124.78;5053508;28;20049;-59
2023/05/29 00:48:27;;;;;;;7.88;5.55;;;;;;;14.30;100.00;96121.31;5053676;28;20102;-60
2023/05/29 00:50:56;;;;;;;8.13;5.05;;;;;;;14.33;100.00;96111.44;5053632;28;20052;-60
2023/05/29 00:53:24;;;;;;;9.23;4.93;;;;;;;14.31;100.00;96112.47;5053634;28;20478;-60
2023/05/29 00:55:52;;;;;;;17.35;6.28;;;;;;;14.32;100.00;96117.66;5053545;28;20049;-60
2023/05/29 00:58:20;;;;;;;12.55;6.35;;;;;;;14.33;100.00;96114.06;5053795;28;20057;-60
2023/05/29 01:00:48;;;;;;;11.55;5.20;;;;;;;14.32;100.00;96109.75;5053361;28;20049;-60
2023/05/29 01:03:16;;;;;;;11.05;5.18;;;;;;;14.36;100.00;96113.88;5053380;28;20049;-61
2023/05/29 01:05:43;;;;;;;9.52;5.28;;;;;;;14.37;100.00;96117.38;5053359;28;20418;-60
2023/05/29 01:08:13;;;;;;;8.23;5.22;;;;;;;14.35;100.00;96122.72;5053230;28;20045;-60
2023/05/29 01:10:42;;;;;;;8.07;5.25;;;;;;;14.34;100.00;96123.69;5053121;28;20530;-60
2023/05/29 01:13:14;;;;;;;7.13;5.40;;;;;;;14.32;100.00;96120.28;5053147;28;20132;-60
2023/05/29 01:15:51;;;;;;;6.45;5.28;;;;;;;14.28;100.00;96109.09;5053246;28;20487;-60
2023/05/29 01:18:32;;;;;;;11.23;5.80;;;;;;;14.37;100.00;96115.59;5053469;28;20430;-60
2023/05/29 01:21:03;;;;;;;;;;;;;;;14.40;100.00;96114.56;5053898;28;20059;-60
2023/05/29 01:24:02;;;;;;;6.25;5.45;;;;;;;14.30;100.00;96113.41;5053082;28;20362;-59
2023/05/29 01:26:48;;;;;;;7.20;5.50;;;;;;;14.24;100.00;96096.22;5053111;28;20136;-60
2023/05/29 01:29:19;;;;;;;11.10;6.10;;;;;;;14.32;100.00;96099.22;5053233;28;20118;-61
2023/05/29 01:31:48;;;;;;;8.88;4.95;;;;;;;14.34;100.00;96102.63;5052962;28;20091;-60
2023/05/29 01:34:15;;;;;;;12.57;5.40;;;;;;;14.36;100.00;96099.91;5052883;28;20048;-61
2023/05/29 01:36:42;;;;;;;15.07;5.53;;;;;;;14.33;100.00;96100.91;5052937;28;20475;-61
2023/05/29 01:39:11;;;;;;;6.25;5.55;;;;;;;14.26;100.00;96092.56;5052929;28;20083;-61
2023/05/29 01:41:40;;;;;;;13.23;5.78;;;;;;;14.25;100.00;96097.91;5052919;28;20045;-60
2023/05/29 01:44:09;;;;;;;10.18;5.32;;;;;;;14.21;100.00;96094.59;5056181;28;20136;-60
2023/05/29 01:46:38;;;;;;;11.88;6.57;;;;;;;14.17;100.00;96100.16;5056998;28;20053;-60
2023/05/29 01:49:06;;;;;;;15.93;7.63;;;;;;;14.11;100.00;96089.06;5057039;28;20579;-61
2023/05/29 01:51:33;;;;;;;13.05;7.32;;;;;;;14.06;100.00;96085.84;5057154;28;20084;-60
2023/05/29 01:54:01;;;;;;;9.05;7.43;;;;;;;14.08;100.00;96086.59;5056978;28;20091;-60
2023/05/29 01:56:29;;;;;;;12.52;8.60;;;;;;;14.14;100.00;96082.75;5056641;28;20053;-60
2023/05/29 01:58:59;;;;;;;10.77;8.15;;;;;;;14.13;100.00;96088.97;5056800;28;20049;-60
2023/05/29 02:01:26;;;;;;;9.80;8.55;;;;;;;14.10;100.00;96095.28;5056849;28;20511;-61
2023/05/29 02:03:53;;;;;;;9.95;7.75;;;;;;;14.13;100.00;96079.31;5056557;28;20455;-61
2023/05/29 02:06:20;;;;;;;14.95;8.65;;;;;;;14.13;100.00;96089.81;5056609;28;20045;-60
2023/05/29 02:08:48;;;;;;;14.25;8.68;;;;;;;14.23;100.00;96090.13;5056760;28;20053;-61
2023/05/29 02:11:15;;;;;;;8.68;7.85;;;;;;;14.25;100.00;96096.13;5056446;28;20053;-60
2023/05/29 02:13:42;;;;;;;9.23;8.02;;;;;;;14.32;100.00;96101.84;5056469;28;20491;-60
2023/05/29 02:16:11;;;;;;;11.85;8.05;;;;;;;14.34;100.00;96100.00;5056456;28;20041;-61
2023/05/29 02:18:38;;;;;;;9.73;8.20;;;;;;;14.41;100.00;96105.72;5056376;28;20140;-59
2023/05/29 02:21:06;;;;;;;13.80;8.65;;;;;;;14.36;100.00;96099.91;5056485;28;20045;-61
2023/05/29 02:23:33;;;;;;;9.55;8.65;;;;;;;14.32;100.00;96103.63;5056580;28;20049;-60
2023/05/29 02:26:01;;;;;;;9.68;8.18;;;;;;;14.28;100.00;96095.97;5056256;28;20127;-59
2023/05/29 02:28:28;;;;;;;13.77;8.80;;;;;;;14.34;100.00;96099.13;5056103;28;20395;-60
2023/05/29 02:30:55;;;;;;;12.27;9.00;;;;;;;14.30;100.00;96100.25;5056167;28;20053;-60
2023/05/29 02:33:23;;;;;;;9.75;8.45;;;;;;;14.27;100.00;96099.50;5056453;28;20517;-60
2023/05/29 02:35:50;;;;;;;12.13;7.97;;;;;;;14.24;100.00;96110.22;5056169;28;20160;-61
2023/05/29 02:38:17;;;;;;;11.85;8.30;;;;;;;14.22;100.00;96113.88;5056319;28;20072;-60
2023/05/29 02:40:44;;;;;;;10.82;8.43;;;;;;;14.22;100.00;96113.88;5056005;28;20099;-60
2023/05/29 02:43:14;;;;;;;13.63;8.95;;;;;;;14.21;100.00;96113.00;5056037;28;20049;-60
2023/05/29 02:45:41;;;;;;;9.82;8.30;;;;;;;14.20;100.00;96113.97;5056006;28;20406;-61
2023/05/29 02:48:08;;;;;;;8.98;8.18;;;;;;;14.23;100.00;96110.28;5055884;28;20131;-59
2023/05/29 02:50:37;;;;;;;10.15;7.97;;;;;;;14.24;100.00;96112.84;5056000;28;20056;-61
2023/05/29 02:53:04;;;;;;;13.57;9.23;;;;;;;14.22;100.00;96114.72;5055903;28;20501;-61
2023/05/29 02:55:35;;;;;;;12.25;8.48;;;;;;;14.24;100.00;96117.28;5055665;28;20491;-60
2023/05/29 02:58:03;;;;;;;12.40;7.82;;;;;;;14.26;100.00;96112.75;5055697;28;20041;-60
2023/05/29 03:00:30;;;;;;;9.77;8.48;;;;;;;14.26;100.00;96115.38;5055725;28;20056;-60
2023/05/29 03:02:57;;;;;;;9.85;8.20;;;;;;;14.27;100.00;96119.72;5055709;28;20053;-60
2023/05/29 03:05:25;;;;;;;9.35;8.25;;;;;;;14.19;100.00;96116.69;5055853;28;20092;-61
2023/05/29 03:07:54;;;;;;;14.95;8.80;;;;;;;14.22;100.00;96132.28;5055510;28;20132;-60
2023/05/29 03:10:21;;;;;;;15.75;7.93;;;;;;;14.26;100.00;96136.41;5055708;28;20048;-60
2023/05/29 03:12:48;;;;;;;13.82;8.48;;;;;;;14.27;100.00;96138.97;5055301;28;20561;-60
2023/05/29 03:15:15;;;;;;;12.65;10.10;;;;;;;14.26;100.00;96141.69;5055634;28;20052;-60
2023/05/29 03:17:42;;;;;;;12.50;8.68;;;;;;;14.19;100.00;96138.59;5055490;28;20053;-60
2023/05/29 03:20:11;;;;;;;10.30;8.27;;;;;;;14.20;100.00;96139.41;5055547;28;20487;-60
2023/05/29 03:22:38;;;;;;;12.80;8.60;;;;;;;14.28;100.00;96150.34;5055203;28;20045;-61
2023/05/29 03:25:07;;;;;;;11.23;8.75;;;;;;;14.28;100.00;96150.34;5055214;28;20055;-60
2023/05/29 03:27:34;;;;;;;11.38;9.07;;;;;;;14.26;100.00;96150.44;5055002;28;20052;-60
2023/05/29 03:30:01;;;;;;;9.27;8.30;;;;;;;14.33;100.00;96155.34;5055091;28;20064;-60
2023/05/29 03:32:29;;;;;;;10.05;7.38;;;;;;;14.40;100.00;96154.88;5055002;28;20045;-60
2023/05/29 03:34:57;;;;;;;11.00;7.38;;;;;;;14.43;100.00;96161.75;5054986;28;20049;-60
2023/05/29 03:37:24;;;;;;;9.88;6.88;;;;;;;14.45;100.00;96166.91;5054965;28;20136;-60
2023/05/29 03:39:52;;;;;;;11.52;7.40;;;;;;;14.45;100.00;96165.09;5055006;28;20073;-61
2023/05/29 03:42:21;;;;;;;13.77;8.20;;;;;;;14.44;100.00;96167.81;5054946;28;20049;-60
2023/05/29 03:44:48;;;;;;;15.23;8.10;;;;;;;14.44;100.00;96168.69;5054972;28;20053;-60
2023/05/29 03:47:16;;;;;;;11.23;7.18;;;;;;;14.49;100.00;96169.28;5055012;28;20080;-60
2023/05/29 03:49:43;;;;;;;15.63;8.05;;;;;;;14.49;100.00;96168.41;5054759;28;20053;-60
2023/05/29 03:52:10;;;;;;;10.02;8.13;;;;;;;14.45;100.00;96172.19;5054923;28;20499;-60
2023/05/29 03:54:37;;;;;;;9.25;8.30;;;;;;;14.48;100.00;96170.19;5054577;28;20053;-60
2023/05/29 03:57:06;;;;;;;14.82;8.50;;;;;;;14.49;100.00;96165.78;5054875;28;20532;-60
2023/05/29 03:59:35;;;;;;;10.80;7.90;;;;;;;14.53;100.00;96162.03;5054603;28;20443;-60
2023/05/29 04:02:02;;;;;;;14.70;9.07;;;;;;;14.55;100.00;96164.56;5054437;28;20091;-59
2023/05/29 04:04:30;;;;;;;9.35;8.30;;;;;;;14.55;99.76;96162.78;5054441;28;20091;-60
2023/05/29 04:06:57;;;;;;;10.00;8.68;;;;;;;14.57;99.04;96167.97;5054015;28;20087;-59
2023/05/29 04:09:24;;;;;;;10.57;8.13;;;;;;;14.59;98.95;96159.03;5054285;28;20041;-60
2023/05/29 04:11:51;;;;;;;9.45;8.48;;;;;;;14.66;99.55;96168.25;5054307;28;20053;-60
2023/05/29 04:14:18;;;;;;;9.32;8.40;;;;;;;14.74;100.00;96164.28;5054600;28;20132;-59
2023/05/29 04:16:48;;;;;;;10.93;8.85;;;;;;;14.83;100.00;96168.19;5054279;28;20479;-60
2023/05/29 04:19:15;;;;;;;9.18;8.35;;;;;;;14.91;100.00;96166.75;5054156;28;20509;-59
2023/05/29 04:21:42;;;;;;;11.95;8.40;;;;;;;14.98;100.00;96174.28;5054468;28;20080;-60
2023/05/29 04:24:10;;;;;;;9.32;8.30;;;;;;;15.05;100.00;96172.16;5054030;28;20142;-59
2023/05/29 04:26:40;;;;;;;10.77;8.40;;;;;;;15.06;99.38;96174.69;5053982;28;20045;-60
2023/05/29 04:29:08;;;;;;;9.57;8.48;;;;;;;15.10;98.85;96170.91;5054174;28;20221;-60
2023/05/29 04:31:36;;;;;;;11.20;8.93;;;;;;;15.12;99.05;96170.81;5054209;28;20522;-60
2023/05/29 04:34:05;;;;;;;9.85;6.78;;;;;;;15.15;97.80;96173.25;5053854;28;20095;-60
2023/05/29 04:36:33;;;;;;;9.57;7.78;;;;;;;15.09;96.68;96177.13;5053841;28;20085;-60
2023/05/29 04:39:01;;;;;;;9.00;7.57;;;;;;;15.06;97.83;96177.31;5054145;28;20060;-61
2023/05/29 04:41:30;;;;;;;8.13;7.22;;;;;;;15.05;98.63;96172.16;5053724;28;20045;-60
2023/05/29 04:43:58;;;;;;;12.05;7.65;;;;;;;15.11;98.43;96169.13;5053674;28;20071;-60
2023/05/29 04:46:26;;;;;;;8.45;7.57;;;;;;;15.08;98.65;96172.78;5053788;28;20099;-60
2023/05/29 04:48:53;;;;;;;14.23;7.65;;;;;;;15.18;100.00;96169.56;5053547;28;20495;-60
2023/05/29 04:51:22;;;;;;;8.50;6.90;;;;;;;15.12;97.78;96174.31;5053652;28;20059;-60
2023/05/29 04:53:51;;;;;;;8.43;7.10;;;;;;;15.21;98.60;96166.75;5053856;28;20045;-60
2023/05/29 04:56:19;;;;;;;12.13;8.20;;;;;;;15.37;99.58;96166.63;5053959;28;20072;-61
2023/05/29 04:58:46;;;;;;;9.57;7.72;;;;;;;15.51;100.00;96173.66;5053589;28;20091;-60
2023/05/29 05:01:14;;;;;;;8.88;6.72;;;;;;;15.55;96.83;96180.44;5053480;28;20045;-61
2023/05/29 05:03:42;;;;;;;6.57;5.53;;;;;;;15.62;93.47;96186.16;5053286;28;20059;-60
2023/05/29 05:06:09;;;;;;;7.85;5.63;;;;;;;15.75;94.04;96180.94;5053269;28;20049;-61
2023/05/29 05:08:38;;;;;;;7.93;6.60;;;;;;;15.87;95.43;96177.47;5053269;28;20053;-61
2023/05/29 05:11:06;;;;;;;8.88;6.43;;;;;;;16.01;95.34;96187.16;5053199;28;20048;-61
2023/05/29 05:13:33;;;;;;;7.68;6.05;;;;;;;16.09;94.26;96194.59;5053191;28;20049;-60
2023/05/29 05:16:00;;;;;;;6.20;4.93;;;;;;;16.15;92.08;96181.00;5053245;28;20079;-61
2023/05/29 05:18:28;;;;;;;11.65;5.85;;;;;;;16.33;93.05;96193.06;5052272;28;20402;-60
2023/05/29 05:20:55;;;;;;;7.30;5.60;;;;;;;16.47;91.38;96184.22;5053222;28;20144;-60
2023/05/29 05:23:22;;;;;;;5.65;5.10;;;;;;;16.54;91.60;96188.97;5053092;28;20049;-60
2023/05/29 05:25:51;;;;;;;8.05;4.65;;;;;;;16.65;90.17;96190.88;5053025;28;20045;-60
2023/05/29 05:28:18;;;;;;;6.63;5.63;;;;;;;16.75;91.29;96193.75;5052845;28;20483;-60
2023/05/29 05:30:45;;;;;;;5.30;4.22;;;;;;;16.76;88.18;96205.13;5053060;28;20052;-60
2023/05/29 05:33:13;;;;;;;6.32;4.70;;;;;;;16.67;87.54;96201.31;5052939;28;20045;-60
2023/05/29 05:35:41;;;;;;;5.28;4.57;;;;;;;16.68;88.46;96206.50;5052938;28;20099;-60
2023/05/29 05:38:08;;;;;;;6.15;4.63;;;;;;;16.74;89.05;96199.94;5052969;28;20048;-60
2023/05/29 05:40:35;;;;;;;6.07;5.47;;;;;;;16.96;90.01;96202.91;5052890;28;20094;-60
2023/05/29 05:43:06;;;;;;;7.43;4.70;;;;;;;17.24;89.79;96204.50;5052952;28;20049;-60
2023/05/29 05:45:34;;;;;;;6.10;4.63;;;;;;;17.49;89.00;96207.22;5052879;28;20045;-61
2023/05/29 05:48:01;;;;;;;4.60;4.15;;;;;;;17.82;84.69;96213.66;5052794;28;20052;-61
2023/05/29 05:50:28;;;;;;;4.65;4.22;;;;;;;18.19;84.23;96203.03;5052820;28;20041;-60
2023/05/29 05:52:56;;;;;;;3.78;3.30;;;;;;;18.51;78.69;96209.53;5052855;28;20052;-60
2023/05/29 05:55:26;;;;;;;4.80;3.25;;;;;;;18.52;76.71;96211.25;5053034;28;20052;-61
2023/05/29 05:57:53;;;;;;;6.18;4.13;;;;;;;18.58;77.54;96215.22;5052797;28;20399;-60
2023/05/29 06:00:23;;;;;;;4.10;3.70;;;;;;;18.64;76.52;96205.97;5052917;28;20056;-60
2023/05/29 06:02:51;;;;;;;3.85;3.50;;;;;;;19.10;75.03;96206.91;5052690;28;20507;-61
2023/05/29 06:05:18;;;;;;;3.90;3.45;;;;;;;19.40;74.39;96199.28;5052745;28;20136;-60
2023/05/29 06:07:46;;;;;;;4.97;4.05;;;;;;;19.57;72.70;96203.25;5052585;28;20041;-60
2023/05/29 06:10:13;;;;;;;4.75;3.50;;;;;;;19.59;72.80;96208.44;5052692;28;20521;-60
2023/05/29 06:12:40;;;;;;;7.13;4.10;;;;;;;19.50;71.41;96207.38;5052595;28;20049;-61
2023/05/29 06:15:09;;;;;;;7.28;3.72;;;;;;;19.35;72.67;96210.25;5052636;28;20068;-61
2023/05/29 06:17:37;;;;;;;5.60;4.32;;;;;;;19.17;72.87;96216.06;5052507;28;20041;-61
2023/05/29 06:20:10;;;;;;;4.68;4.28;;;;;;;18.84;72.87;96208.91;5052540;28;20057;-60
2023/05/29 06:22:38;;;;;;;4.18;3.85;;;;;;;18.69;73.70;96209.94;5052494;28;20052;-60
2023/05/29 06:25:06;;;;;;;4.43;4.03;;;;;;;18.67;74.35;96213.69;5052553;28;20056;-60
2023/05/29 06:27:35;;;;;;;5.03;4.63;;;;;;;18.73;77.57;96207.06;5052735;28;20048;-61
2023/05/29 06:30:02;;;;;;;8.07;4.68;;;;;;;18.69;76.69;96209.09;5055274;28;20572;-60
2023/05/29 06:32:30;;;;;;;7.28;5.00;;;;;;;18.75;80.31;96207.78;5056232;28;20049;-60
2023/05/29 06:34:58;;;;;;;6.63;4.82;;;;;;;18.68;78.08;96207.41;5056357;28;20072;-60
2023/05/29 06:37:25;;;;;;;5.30;4.70;;;;;;;18.59;77.77;96203.66;5056218;28;20041;-60
2023/05/29 06:39:52;;;;;;;4.57;4.18;;;;;;;18.61;77.46;96204.41;5056056;28;20072;-60
2023/05/29 06:42:20;;;;;;;4.55;4.10;;;;;;;18.42;75.13;96205.78;5056089;28;20388;-61
2023/05/29 06:44:47;;;;;;;5.03;4.53;;;;;;;18.28;78.33;96203.34;5055962;28;20056;-61
2023/05/29 06:47:14;;;;;;;8.00;4.93;;;;;;;18.19;77.93;96199.56;5055957;28;20049;-60
2023/05/29 06:49:45;;;;;;;5.40;4.90;;;;;;;18.20;79.85;96198.59;5055819;28;20051;-60
2023/05/29 06:52:13;;;;;;;7.28;4.53;;;;;;;18.12;79.60;96199.16;5055832;28;20478;-60
2023/05/29 06:54:41;;;;;;;6.40;4.22;;;;;;;17.99;79.49;96204.50;5055876;28;20049;-61
2023/05/29 06:57:08;;;;;;;7.35;4.75;;;;;;;17.95;79.17;96205.69;5055862;28;20084;-60
2023/05/29 06:59:36;;;;;;;5.63;4.90;;;;;;;17.94;80.56;96209.28;5055758;28;20045;-60
2023/05/29 07:02:03;;;;;;;5.25;4.75;;;;;;;18.03;81.01;96213.06;5055758;28;20127;-60
2023/05/29 07:04:30;;;;;;;6.05;5.38;;;;;;;18.16;82.86;96219.19;5055625;28;20084;-60
2023/05/29 07:06:58;;;;;;;5.70;5.20;;;;;;;18.22;82.39;96215.22;5055871;28;20132;-59
2023/05/29 07:09:27;;;;;;;7.95;5.05;;;;;;;18.25;81.04;96222.09;5055523;28;20106;-60
2023/05/29 07:11:54;;;;;;;7.82;4.82;;;;;;;18.29;80.65;96223.53;5055504;28;20099;-60
2023/05/29 07:14:21;;;;;;;5.97;4.65;;;;;;;18.26;81.54;96223.75;5055419;28;20041;-60
2023/05/29 07:16:48;;;;;;;4.90;4.50;;;;;;;18.15;78.23;96225.41;5055444;28;20041;-61
2023/05/29 07:19:17;;;;;;;7.18;4.80;;;;;;;18.21;79.34;96223.28;5055393;28;20049;-60
2023/05/29 07:21:44;;;;;;;6.07;4.57;;;;;;;18.18;78.83;96225.19;5055348;28;20052;-60
2023/05/29 07:24:11;;;;;;;5.55;4.07;;;;;;;18.20;79.46;96227.72;5055489;28;20049;-61
2023/05/29 07:26:39;;;;;;;8.32;4.78;;;;;;;18.19;78.09;96229.50;5055426;28;20045;-60
2023/05/29 07:29:07;;;;;;;5.20;4.10;;;;;;;18.19;78.31;96226.03;5055308;28;20052;-61
2023/05/29 07:31:35;;;;;;;5.85;4.60;;;;;;;18.34;77.92;96231.13;5055128;28;20140;-61
2023/05/29 07:34:02;;;;;;;7.30;4.15;;;;;;;18.37;78.23;96226.47;5055094;28;20132;-60
2023/05/29 07:36:32;;;;;;;7.00;4.18;;;;;;;18.41;79.20;96222.63;5055042;28;20079;-61
2023/05/29 07:38:59;;;;;;;7.50;4.18;;;;;;;18.46;77.54;96224.94;5055166;28;20076;-60
2023/05/29 07:41:27;;;;;;;5.00;3.92;;;;;;;18.56;80.19;96233.88;5054027;28;20045;-60
2023/05/29 07:43:56;;;;;;;5.68;4.05;;;;;;;18.63;77.09;96228.94;5055105;28;20084;-60
2023/05/29 07:46:23;;;;;;;4.53;3.75;;;;;;;18.63;75.26;96230.78;5054851;28;20053;-61
2023/05/29 07:48:50;;;;;;;4.25;3.65;;;;;;;18.58;74.77;96223.16;5054694;28;20052;-60
2023/05/29 07:51:17;;;;;;;4.13;3.72;;;;;;;18.72;78.32;96221.28;5055019;28;20048;-60
2023/05/29 07:53:46;;;;;;;6.00;3.95;;;;;;;18.92;77.73;96225.88;5054809;28;20406;-60
2023/05/29 07:56:13;;;;;;;4.90;4.00;;;;;;;19.09;76.29;96222.91;5054977;28;20044;-61
2023/05/29 07:58:41;;;;;;;3.58;3.28;;;;;;;19.26;76.37;96226.91;5054852;28;20095;-60
2023/05/29 08:01:09;;;;;;;3.50;3.10;;;;;;;19.13;71.85;96229.66;5054875;28;20380;-60
2023/05/29 08:03:37;;;;;;;3.83;3.38;;;;;;;19.09;70.87;96229.06;5054585;28;20045;-60
2023/05/29 08:06:04;;;;;;;3.85;3.35;;;;;;;19.16;71.09;96234.72;5054537;28;20041;-60
2023/05/29 08:08:31;;;;;;;6.35;3.35;;;;;;;19.24;73.39;96232.34;5054340;28;20052;-60
2023/05/29 08:10:59;;;;;;;7.78;3.33;;;;;;;19.30;71.75;96228.34;5054254;28;20552;-60
2023/05/29 08:13:27;;;;;;;3.17;2.92;;;;;;;19.35;71.14;96233.31;5054416;28;20049;-60
2023/05/29 08:15:54;;;;;;;4.07;2.78;;;;;;;19.41;70.17;96232.78;5054473;28;20048;-60
2023/05/29 08:18:22;;;;;;;3.55;3.13;;;;;;;19.33;70.57;96233.41;5054345;28;20045;-59
2023/05/29 08:20:50;;;;;;;4.25;2.75;;;;;;;19.28;70.49;96235.56;5054394;28;20045;-60
2023/05/29 08:23:17;;;;;;;3.83;2.72;;;;;;;19.26;71.65;96233.03;5054285;28;20049;-60
2023/05/29 08:25:44;;;;;;;2.75;2.55;;;;;;;19.19;71.01;96230.03;5054167;28;20060;-60
2023/05/29 08:28:12;;;;;;;3.78;3.35;;;;;;;19.35;72.18;96233.31;5054166;28;20045;-60
2023/05/29 08:30:39;;;;;;;4.70;2.88;;;;;;;19.48;70.95;96233.16;5054116;28;20049;-61
2023/05/29 08:33:06;;;;;;;3.47;3.00;;;;;;;19.62;70.72;96229.44;5054157;28;20094;-60
2023/05/29 08:35:35;;;;;;;4.30;3.13;;;;;;;19.80;71.74;96233.25;5054144;28;20060;-60
2023/05/29 08:38:02;;;;;;;4.25;2.55;;;;;;;19.65;67.36;96222.06;5054000;28;20049;-60
2023/05/29 08:40:29;;;;;;;2.55;2.35;;;;;;;19.70;69.95;96227.84;5053994;28;20115;-60
2023/05/29 08:42:59;;;;;;;3.53;3.05;;;;;;;19.68;69.25;96229.75;5053864;28;20077;-60
2023/05/29 08:45:27;;;;;;;2.80;2.60;;;;;;;19.57;67.76;96224.47;5054053;28;20052;-60
2023/05/29 08:47:54;;;;;;;2.88;2.60;;;;;;;19.68;68.87;96227.09;5053769;28;20429;-60
2023/05/29 08:50:23;;;;;;;2.53;2.33;;;;;;;19.57;68.90;96232.44;5053630;28;20053;-59
2023/05/29 08:52:52;;;;;;;2.63;2.42;;;;;;;19.68;69.60;96224.47;5053556;28;20057;-59
2023/05/29 08:55:19;;;;;;;2.55;1.85;;;;;;;19.80;66.39;96221.78;5053807;28;20083;-59
2023/05/29 08:57:48;;;;;;;3.05;1.73;;;;;;;19.75;66.50;96222.13;5053689;28;20132;-59
2023/05/29 09:00:18;;;;;;;1.80;1.70;;;;;;;19.92;67.56;96227.91;5053520;28;20132;-59
2023/05/29 09:02:45;;;;;;;7.85;2.03;;;;;;;19.96;65.36;96226.69;5053612;28;20454;-60
2023/05/29 09:05:13;;;;;;;2.30;2.00;;;;;;;20.10;68.27;96225.59;5053576;28;20498;-60
2023/05/29 09:07:40;;;;;;;2.33;1.75;;;;;;;20.24;67.92;96221.81;5053418;28;20056;-60
2023/05/29 09:10:11;;;;;;;2.67;1.50;;;;;;;20.40;65.64;96221.38;5053163;28;20071;-59
2023/05/29 09:12:39;;;;;;;3.78;1.30;;;;;;;20.49;66.35;96214.44;5053329;28;20057;-60
2023/05/29 09:15:18;;;;;;;1.90;1.70;;;;;;;20.54;62.08;96216.72;5053229;28;20051;-60
2023/05/29 09:17:45;;;;;;;1.77;1.67;;;;;;;20.65;64.33;96208.69;5053533;28;20088;-60
2023/05/29 09:20:22;;;;;;;3.33;1.88;;;;;;;20.58;63.28;96202.19;5053137;28;20045;-60
2023/05/29 09:22:55;;;;;;;1.90;1.70;;;;;;;20.62;61.33;96197.50;5053260;28;20410;-61
2023/05/29 09:25:26;;;;;;;3.85;2.08;;;;;;;20.59;63.01;96193.28;5053046;28;20128;-60
2023/05/29 09:27:55;;;;;;;5.03;2.53;;;;;;;20.67;65.81;96190.81;5052976;28;20403;-60
2023/05/29 09:30:39;;;;;;;4.97;1.88;;;;;;;20.81;63.07;96188.78;5052991;28;20187;-60
2023/05/29 09:33:08;;;;;;;2.55;2.15;;;;;;;20.64;63.35;96193.72;5053080;28;20049;-61
2023/05/29 09:35:37;;;;;;;8.65;2.10;;;;;;;20.65;64.68;96195.41;5053103;28;20080;-60
2023/05/29 09:38:04;;;;;;;2.47;1.95;;;;;;;20.54;63.83;96191.00;5052901;28;20414;-60
2023/05/29 09:40:34;;;;;;;2.10;1.90;;;;;;;20.58;66.51;96183.59;5052954;28;20174;-60
2023/05/29 09:43:07;;;;;;;2.50;2.00;;;;;;;20.93;64.07;96195.75;5052871;28;20495;-60
2023/05/29 09:45:37;;;;;;;4.20;1.80;;;;;;;21.45;64.59;96194.84;5053224;28;20094;-61
2023/05/29 09:48:04;;;;;;;3.75;1.70;;;;;;;21.56;62.57;96195.72;5052988;28;20049;-61
2023/05/29 09:50:33;;;;;;;1.83;1.45;;;;;;;21.43;61.56;96209.25;5052867;28;20502;-61
2023/05/29 09:53:01;;;;;;;1.60;1.40;;;;;;;21.26;61.87;96200.09;5053092;28;20057;-61
2023/05/29 09:55:30;;;;;;;2.72;1.60;;;;;;;21.05;65.21;96195.66;5052798;28;20411;-60
2023/05/29 09:58:00;;;;;;;1.50;1.40;;;;;;;21.31;65.18;96203.19;5052814;28;20045;-61
2023/05/29 10:00:27;;;;;;;2.20;1.20;;;;;;;21.39;61.76;96198.03;5052804;28;20053;-61
2023/05/29 10:02:55;;;;;;;1.58;1.10;;;;;;;21.68;63.63;96191.13;5052863;28;20132;-61
2023/05/29 10:05:22;;;;;;;4.25;1.50;;;;;;;21.67;63.08;96195.59;5056442;28;20053;-61
2023/05/29 10:07:53;;;;;;;1.23;1.13;;;;;;;21.59;59.63;96190.13;5057196;28;20080;-61
2023/05/29 10:10:20;;;;;;;1.80;1.70;;;;;;;21.71;60.45;96181.03;5056693;28;20060;-61
2023/05/29 10:12:50;;;;;;;2.80;1.20;;;;;;;21.89;60.12;96182.22;5056659;28;20057;-61
2023/05/29 10:15:20;;;;;;;1.80;1.38;;;;;;;22.19;62.63;96173.25;5056743;28;20135;-61
2023/05/29 10:17:52;;;;;;;1.88;1.17;;;;;;;22.19;58.31;96177.75;5056643;28;20127;-61
2023/05/29 10:20:21;;;;;;;2.63;1.10;;;;;;;22.26;58.63;96168.22;5056657;28;20581;-61
2023/05/29 10:22:51;;;;;;;1.52;1.30;;;;;;;22.26;59.43;96159.38;5056592;28;20068;-60
2023/05/29 10:25:20;;;;;;;1.40;1.30;;;;;;;22.38;61.50;96152.94;5056480;28;20110;-60
2023/05/29 10:27:47;;;;;;;2.60;1.20;;;;;;;22.62;61.07;96148.16;5056410;28;20045;-61
2023/05/29 10:30:23;;;;;;;1.52;1.40;;;;;;;22.70;54.33;96157.09;5056337;28;20056;-61
2023/05/29 10:33:16;;;;;;;3.97;1.38;;;;;;;22.49;56.94;96156.41;5056231;28;20045;-61
2023/05/29 10:35:46;;;;;;;1.92;1.50;;;;;;;22.49;55.95;96165.28;5056283;28;20099;-60
2023/05/29 10:38:16;;;;;;;1.60;1.50;;;;;;;22.55;56.14;96169.19;5056163;28;20120;-60
2023/05/29 10:40:44;;;;;;;6.78;1.50;;;;;;;22.50;54.25;96155.44;5056182;28;20439;-61
2023/05/29 10:43:32;;;;;;;2.45;1.63;;;;;;;22.84;59.13;96150.47;5056312;28;20459;-60
2023/05/29 10:46:00;;;;;;;2.63;1.38;;;;;;;23.15;55.79;96159.22;5056188;28;20049;-61
2023/05/29 10:48:39;;;;;;;5.82;1.60;;;;;;;23.41;57.37;96150.56;5056055;28;20048;-61
2023/05/29 10:51:07;;;;;;;3.13;1.98;;;;;;;23.65;53.57;96158.00;5055991;28;20417;-60
2023/05/29 10:53:39;;;;;;;2.28;1.50;;;;;;;23.89;54.20;96166.41;5056266;28;20053;-60
2023/05/29 10:56:10;;;;;;;3.20;1.50;;;;;;;23.86;52.34;96170.22;5056031;28;20045;-60
2023/05/29 10:58:38;;;;;;;1.92;1.48;;;;;;;23.98;51.53;96160.16;5056178;28;20041;-61
2023/05/29 11:01:09;;;;;;;4.30;1.60;;;;;;;24.20;54.56;96155.41;5055842;28;20045;-60
2023/05/29 11:03:36;;;;;;;2.88;1.58;;;;;;;24.10;53.68;96158.97;5056111;28;20049;-61
2023/05/29 11:06:05;;;;;;;3.00;1.30;;;;;;;24.05;48.96;96163.09;5055773;28;20056;-61
2023/05/29 11:08:37;;;;;;;3.90;1.60;;;;;;;24.13;50.94;96163.19;5056040;28;20068;-61
2023/05/29 11:11:05;;;;;;;4.35;1.23;;;;;;;24.00;52.47;96158.19;5055287;28;20078;-60
2023/05/29 11:13:37;;;;;;;2.05;1.58;;;;;;;23.86;51.35;96154.22;5055473;28;20547;-61
2023/05/29 11:16:36;;;;;;;2.85;1.90;;;;;;;23.79;50.90;96155.81;5054076;28;20059;-60
2023/05/29 11:19:06;;;;;;;1.50;1.40;;;;;;;23.64;53.25;96148.31;5055456;28;20045;-60
2023/05/29 11:21:40;;;;;;;3.10;1.60;;;;;;;23.54;51.30;96151.03;5055489;28;20102;-60
2023/05/29 11:24:07;;;;;;;2.78;1.67;;;;;;;23.07;51.89;96150.13;5055218;28;20325;-60
2023/05/29 11:26:35;;;;;;;2.60;1.58;;;;;;;22.91;54.00;96149.91;5055288;28;20057;-60
2023/05/29 11:29:04;;;;;;;3.38;1.60;;;;;;;22.70;52.60;96149.09;5055494;28;20049;-60
2023/05/29 11:31:34;;;;;;;5.05;1.70;;;;;;;22.80;54.17;96148.25;5055230;28;20049;-60
2023/05/29 11:34:04;;;;;;;7.57;1.65;;;;;;;22.79;53.41;96150.06;5055223;28;20085;-60
2023/05/29 11:36:32;;;;;;;2.50;1.70;;;;;;;23.09;53.91;96147.31;5055154;28;20049;-60